createdAt,value
2023-02-19T00:03:23.513Z,99124.46
2023-02-19T00:08:27.114Z,99120.70
2023-02-19T00:13:31.450Z,99124.56
2023-02-19T00:18:35.471Z,99123.70
2023-02-19T00:23:39.252Z,99126.14
2023-02-19T00:28:42.707Z,99133.15
2023-02-19T00:33:47.867Z,99130.61
2023-02-19T00:38:51.794Z,99133.33
2023-02-19T00:44:01.193Z,99125.40
2023-02-19T00:49:07.124Z,99127.62
2023-02-19T00:54:12.009Z,99123.22
2023-02-19T00:59:16.201Z,99130.73
2023-02-19T01:04:19.772Z,99140.06
2023-02-19T01:09:23.529Z,99146.46
2023-02-19T01:14:27.289Z,99150.15
2023-02-19T01:19:30.762Z,99142.04
2023-02-19T01:24:34.280Z,99147.73
2023-02-19T01:29:38.406Z,99146.23
2023-02-19T01:34:42.158Z,99142.29
2023-02-19T01:39:45.540Z,99141.10
2023-02-19T01:44:49.060Z,99139.88
2023-02-19T01:49:57.045Z,99136.58
2023-02-19T01:55:03.299Z,99129.02
2023-02-19T02:00:10.462Z,99133.85
2023-02-19T02:05:25.154Z,99140.35
2023-02-19T02:10:29.061Z,99135.95
2023-02-19T02:15:45.074Z,99136.42
2023-02-19T02:20:56.881Z,99132.47
2023-02-19T02:26:36.441Z,99130.14
2023-02-19T02:31:50.240Z,99129.66
2023-02-19T02:37:03.442Z,99139.13
2023-02-19T02:42:25.804Z,99145.54
2023-02-19T02:47:45.330Z,99152.77
2023-02-19T02:53:11.132Z,99148.44
2023-02-19T02:58:16.291Z,99143.73
2023-02-19T03:03:23.792Z,99133.59
2023-02-19T03:08:37.446Z,99138.48
2023-02-19T03:13:59.707Z,99138.11
2023-02-19T03:19:21.950Z,99130.63
2023-02-19T03:24:50.459Z,99130.51
2023-02-19T03:29:57.759Z,99129.61
2023-02-19T03:35:07.311Z,99127.84
2023-02-19T03:40:11.929Z,99127.05
2023-02-19T03:45:21.635Z,99130.59
2023-02-19T03:50:30.101Z,99130.46
2023-02-19T03:55:51.728Z,99127.17
2023-02-19T04:00:59.819Z,99129.06
2023-02-19T04:06:07.845Z,99124.30
2023-02-19T04:11:12.537Z,99121.13
2023-02-19T04:16:22.084Z,99121.67
2023-02-19T04:21:29.550Z,99118.74
2023-02-19T04:26:34.086Z,99117.65
2023-02-19T04:31:38.925Z,99115.95
2023-02-19T04:36:42.235Z,99115.49
2023-02-19T04:41:45.856Z,99110.71
2023-02-19T04:46:49.983Z,99112.38
2023-02-19T04:51:53.502Z,99108.49
2023-02-19T04:56:57.949Z,99105.44
2023-02-19T05:02:01.455Z,99104.11
2023-02-19T05:07:04.980Z,99097.62
2023-02-19T05:12:08.508Z,99095.58
2023-02-19T05:17:11.997Z,99093.95
2023-02-19T05:22:15.409Z,99094.23
2023-02-19T05:27:18.926Z,99094.77
2023-02-19T05:32:22.444Z,99091.07
2023-02-19T05:37:26.059Z,99097.35
2023-02-19T05:42:29.573Z,99100.41
2023-02-19T05:47:33.088Z,99104.30
2023-02-19T05:52:36.604Z,99106.60
2023-02-19T05:57:44.219Z,99109.96
2023-02-19T06:02:48.073Z,99110.70
2023-02-19T06:07:51.655Z,99117.49
2023-02-19T06:12:55.480Z,99118.30
2023-02-19T06:17:58.994Z,99121.67
2023-02-19T06:23:02.510Z,99124.86
2023-02-19T06:28:06.136Z,99136.44
2023-02-19T06:33:09.649Z,99140.23
2023-02-19T06:38:13.200Z,99144.08
2023-02-19T06:43:16.684Z,99141.16
2023-02-19T06:48:20.313Z,99152.23
2023-02-19T06:53:24.128Z,99158.35
2023-02-19T06:58:28.052Z,99162.32
2023-02-19T07:03:31.566Z,99168.27
2023-02-19T07:08:34.976Z,99166.11
2023-02-19T07:13:38.896Z,99173.84
2023-02-19T07:18:42.421Z,99179.32
2023-02-19T07:23:46.234Z,99188.89
2023-02-19T07:28:51.427Z,99193.98
2023-02-19T07:33:55.909Z,99199.58
2023-02-19T07:39:00.158Z,99203.57
2023-02-19T07:44:04.096Z,99211.82
2023-02-19T07:49:07.600Z,99217.98
2023-02-19T07:54:11.833Z,99220.61
2023-02-19T07:59:19.755Z,99224.34
2023-02-19T08:04:23.272Z,99226.83
2023-02-19T08:09:26.990Z,99231.58
2023-02-19T08:14:30.810Z,99236.55
2023-02-19T08:19:35.762Z,99249.17
2023-02-19T08:24:43.165Z,99257.61
2023-02-19T08:29:46.796Z,99256.83
2023-02-19T08:34:50.401Z,99254.45
2023-02-19T08:39:54.020Z,99258.20
2023-02-19T08:44:57.741Z,99270.55
2023-02-19T08:50:01.359Z,99270.15
2023-02-19T08:55:06.580Z,99281.77
2023-02-19T09:00:11.282Z,99290.23
2023-02-19T09:05:15.196Z,99291.27
2023-02-19T09:10:18.999Z,99291.63
2023-02-19T09:15:22.416Z,99299.67
2023-02-19T09:20:26.031Z,99298.77
2023-02-19T09:25:29.750Z,99299.94
2023-02-19T09:30:33.405Z,99302.75
2023-02-19T09:35:39.911Z,99310.42
2023-02-19T09:40:43.581Z,99319.58
2023-02-19T09:45:48.092Z,99318.98
2023-02-19T09:50:51.774Z,99325.12
2023-02-19T09:55:56.922Z,99328.81
2023-02-19T10:01:03.694Z,99329.87
2023-02-19T10:06:30.027Z,99335.58
2023-02-19T10:11:33.752Z,99340.59
2023-02-19T10:16:43.315Z,99342.27
2023-02-19T10:21:47.148Z,99352.91
2023-02-19T10:26:51.177Z,99349.80
2023-02-19T10:32:18.482Z,99358.80
2023-02-19T10:37:21.952Z,99360.24
2023-02-19T10:42:26.380Z,99356.90
2023-02-19T10:47:31.231Z,99359.09
2023-02-19T10:52:36.811Z,99367.16
2023-02-19T10:57:40.820Z,99364.73
2023-02-19T11:02:45.661Z,99362.77
2023-02-19T11:07:56.448Z,99367.08
2023-02-19T11:13:03.860Z,99362.38
2023-02-19T11:18:13.456Z,99368.20
2023-02-19T11:23:27.689Z,99375.17
2023-02-19T11:28:37.344Z,99395.29
2023-02-19T11:33:58.783Z,99397.96
2023-02-19T11:39:17.756Z,99399.83
2023-02-19T11:44:30.501Z,99397.81
2023-02-19T11:49:39.845Z,99413.56
2023-02-19T11:54:56.370Z,99402.78
2023-02-19T12:00:18.932Z,99404.30
2023-02-19T12:05:31.674Z,99416.30
2023-02-19T12:11:14.093Z,99408.67
2023-02-19T12:16:39.553Z,99423.40
2023-02-19T12:21:52.140Z,99428.65
2023-02-19T12:27:28.218Z,99435.91
2023-02-19T12:32:50.574Z,99435.91
2023-02-19T12:38:17.855Z,99438.52
2023-02-19T12:43:24.948Z,99443.27
2023-02-19T12:48:37.677Z,99444.38
2023-02-19T12:54:01.777Z,99450.52
2023-02-19T12:59:25.571Z,99447.70
2023-02-19T13:04:44.242Z,99451.39
2023-02-19T13:09:53.288Z,99464.52
2023-02-19T13:15:12.985Z,99467.81
2023-02-19T13:20:28.689Z,99463.51
2023-02-19T13:25:44.592Z,99466.05
2023-02-19T13:31:08.438Z,99479.67
2023-02-19T13:36:17.015Z,99477.10
2023-02-19T13:41:27.910Z,99473.52
2023-02-19T13:46:43.660Z,99475.88
2023-02-19T13:51:56.350Z,99484.82
2023-02-19T13:57:22.694Z,99488.23
2023-02-19T14:02:35.346Z,99498.55
2023-02-19T14:07:49.073Z,99504.66
2023-02-19T14:12:52.586Z,99503.22
2023-02-19T14:17:56.204Z,99505.94
2023-02-19T14:23:09.035Z,99511.92
2023-02-19T14:28:25.366Z,99516.04
2023-02-19T14:33:33.454Z,99512.80
2023-02-19T14:38:47.440Z,99519.09
2023-02-19T14:43:56.992Z,99532.44
2023-02-19T14:49:12.591Z,99539.67
2023-02-19T14:54:36.276Z,99540.50
2023-02-19T14:59:39.692Z,99548.70
2023-02-19T15:04:43.803Z,99557.83
2023-02-19T15:10:03.607Z,99560.90
2023-02-19T15:15:09.181Z,99561.05
2023-02-19T15:20:17.612Z,99567.26
2023-02-19T15:25:24.001Z,99573.35
2023-02-19T15:30:32.373Z,99579.54
2023-02-19T15:35:36.764Z,99596.45
2023-02-19T15:40:46.154Z,99601.92
2023-02-19T15:45:51.188Z,99618.38
2023-02-19T15:51:05.233Z,99620.33
2023-02-19T15:56:11.820Z,99634.46
2023-02-19T16:01:20.222Z,99636.76
2023-02-19T16:06:26.120Z,99637.70
2023-02-19T16:11:47.865Z,99652.38
2023-02-19T16:16:56.416Z,99651.79
2023-02-19T16:22:01.003Z,99661.73
2023-02-19T16:27:06.510Z,99676.42
2023-02-19T16:32:17.543Z,99677.63
2023-02-19T16:37:44.375Z,99685.17
2023-02-19T16:42:55.443Z,99683.84
2023-02-19T16:47:58.860Z,99688.83
2023-02-19T16:53:04.497Z,99681.45
2023-02-19T16:58:07.838Z,99693.92
2023-02-19T17:03:18.723Z,99704.59
2023-02-19T17:08:35.048Z,99710.08
2023-02-19T17:13:38.655Z,99721.45
2023-02-19T17:18:42.274Z,99733.34
2023-02-19T17:23:46.199Z,99736.85
2023-02-19T17:28:50.635Z,99737.05
2023-02-19T17:33:54.468Z,99743.77
2023-02-19T17:38:59.497Z,99738.79
2023-02-19T17:44:02.929Z,99732.20
2023-02-19T17:49:07.687Z,99736.33
2023-02-19T17:54:11.238Z,99739.72
2023-02-19T17:59:16.390Z,99743.34
2023-02-19T18:04:21.241Z,99746.54
2023-02-19T18:09:25.011Z,99752.05
2023-02-19T18:14:28.622Z,99764.36
2023-02-19T18:19:32.756Z,99765.75
2023-02-19T18:24:36.370Z,99771.33
2023-02-19T18:29:40.095Z,99777.26
2023-02-19T18:34:43.510Z,99773.35
2023-02-19T18:39:47.125Z,99768.94
2023-02-19T18:44:51.695Z,99767.02
2023-02-19T18:49:56.204Z,99775.16
2023-02-19T18:54:59.837Z,99781.15
2023-02-19T19:00:03.743Z,99791.31
2023-02-19T19:05:08.183Z,99795.10
2023-02-19T19:10:11.700Z,99791.10
2023-02-19T19:15:21.258Z,99791.24
2023-02-19T19:20:24.779Z,99779.16
2023-02-19T19:25:28.503Z,99779.61
2023-02-19T19:30:32.041Z,99770.51
2023-02-19T19:35:35.632Z,99768.12
2023-02-19T19:40:42.525Z,99770.70
2023-02-19T19:45:46.251Z,99784.74
2023-02-19T19:50:50.073Z,99774.80
2023-02-19T19:55:54.108Z,99763.86
2023-02-19T20:00:59.612Z,99759.92
2023-02-19T20:06:03.797Z,99773.19
2023-02-19T20:11:07.312Z,99768.13
2023-02-19T20:16:12.769Z,99774.05
2023-02-19T20:21:16.787Z,99786.89
2023-02-19T20:26:28.753Z,99794.48
2023-02-19T20:31:32.289Z,99801.52
2023-02-19T20:36:43.422Z,99797.05
2023-02-19T20:41:48.530Z,99798.75
2023-02-19T20:46:53.593Z,99807.77
2023-02-19T20:52:07.495Z,99803.55
2023-02-19T20:57:11.600Z,99798.22
2023-02-19T21:02:22.301Z,99799.73
2023-02-19T21:07:26.628Z,99803.10
2023-02-19T21:12:30.040Z,99796.18
2023-02-19T21:17:33.551Z,99798.06
2023-02-19T21:22:37.001Z,99792.08
2023-02-19T21:27:40.475Z,99793.55
2023-02-19T21:32:44.094Z,99799.23
2023-02-19T21:37:47.611Z,99797.59
2023-02-19T21:42:51.125Z,99792.77
2023-02-19T21:47:55.467Z,99791.48
2023-02-19T22:00:12.971Z,99775.13
2023-02-19T22:05:16.870Z,99775.31
2023-02-19T22:10:21.615Z,99783.30
2023-02-19T22:15:25.026Z,99772.48
2023-02-19T22:20:28.547Z,99765.07
2023-02-19T22:25:32.340Z,99776.15
2023-02-19T22:30:36.123Z,99789.55
2023-02-19T22:35:39.601Z,99775.31
2023-02-19T22:40:43.629Z,99765.06
2023-02-19T22:45:48.118Z,99765.73
2023-02-19T22:50:53.222Z,99766.27
2023-02-19T22:55:56.736Z,99769.42
2023-02-19T23:01:00.377Z,99763.34
2023-02-19T23:06:05.103Z,99761.02
2023-02-19T23:11:09.152Z,99758.11
2023-02-19T23:16:12.967Z,99750.02
2023-02-19T23:21:18.626Z,99741.48
2023-02-19T23:26:22.750Z,99740.45
2023-02-19T23:31:27.157Z,99733.91
2023-02-19T23:36:30.803Z,99732.35
2023-02-19T23:41:34.419Z,99741.74
2023-02-19T23:46:37.835Z,99736.89
2023-02-19T23:51:41.860Z,99736.08
2023-02-19T23:56:45.269Z,99742.30
